Aviation Digital Data Service (ADDS)

Output produced by TAFs form (1304 UTC 17 January 2017)
found at http://aviationweather.gov/adds/tafs/
 
KAMA 171136Z 1712/1812 33009KT P6SM SCT010 
     TEMPO 1712/1714 BKN010 
     FM171600 31006KT P6SM FEW009 SCT060 SCT200 
     FM172300 16008KT P6SM SCT040 BKN120 
     FM180600 19009KT P6SM BKN025 OVC040